sensor_id;sensor_type;location;lat;lon;timestamp;P1;durP1;ratioP1;P2;durP2;ratioP2
34230;SDS011;21574;51.538;-0.084;2022-09-28T00:01:16;7.70;;;4.55;;
34230;SDS011;21574;51.538;-0.084;2022-09-28T00:03:44;7.88;;;4.68;;
34230;SDS011;21574;51.538;-0.084;2022-09-28T00:08:37;7.90;;;4.72;;
34230;SDS011;21574;51.538;-0.084;2022-09-28T00:11:03;7.57;;;4.80;;
34230;SDS011;21574;51.538;-0.084;2022-09-28T00:13:30;8.25;;;4.90;;
34230;SDS011;21574;51.538;-0.084;2022-09-28T00:16:04;6.93;;;4.75;;
34230;SDS011;21574;51.538;-0.084;2022-09-28T00:18:31;8.35;;;4.68;;
34230;SDS011;21574;51.538;-0.084;2022-09-28T00:21:02;7.38;;;4.53;;
34230;SDS011;21574;51.538;-0.084;2022-09-28T00:23:30;7.63;;;4.70;;
34230;SDS011;21574;51.538;-0.084;2022-09-28T00:26:00;8.43;;;5.03;;
34230;SDS011;21574;51.538;-0.084;2022-09-28T00:28:27;8.25;;;5.28;;
34230;SDS011;21574;51.538;-0.084;2022-09-28T00:30:54;8.20;;;4.83;;
34230;SDS011;21574;51.538;-0.084;2022-09-28T00:33:20;7.63;;;5.05;;
34230;SDS011;21574;51.538;-0.084;2022-09-28T00:35:46;7.82;;;5.15;;
34230;SDS011;21574;51.538;-0.084;2022-09-28T00:38:18;7.65;;;5.10;;
34230;SDS011;21574;51.538;-0.084;2022-09-28T00:40:44;8.48;;;5.38;;
34230;SDS011;21574;51.538;-0.084;2022-09-28T00:43:18;7.15;;;5.05;;
34230;SDS011;21574;51.538;-0.084;2022-09-28T00:45:44;10.52;;;6.43;;
34230;SDS011;21574;51.538;-0.084;2022-09-28T00:48:15;10.55;;;6.65;;
34230;SDS011;21574;51.538;-0.084;2022-09-28T00:50:41;13.35;;;7.70;;
34230;SDS011;21574;51.538;-0.084;2022-09-28T00:53:08;9.93;;;6.82;;
34230;SDS011;21574;51.538;-0.084;2022-09-28T00:55:48;11.20;;;7.45;;
34230;SDS011;21574;51.538;-0.084;2022-09-28T00:58:17;10.95;;;7.32;;
34230;SDS011;21574;51.538;-0.084;2022-09-28T01:00:54;10.98;;;7.75;;
34230;SDS011;21574;51.538;-0.084;2022-09-28T01:03:22;15.20;;;7.13;;
34230;SDS011;21574;51.538;-0.084;2022-09-28T01:05:48;13.88;;;8.25;;
34230;SDS011;21574;51.538;-0.084;2022-09-28T01:08:16;11.32;;;7.68;;
34230;SDS011;21574;51.538;-0.084;2022-09-28T01:10:45;10.75;;;7.80;;
34230;SDS011;21574;51.538;-0.084;2022-09-28T01:13:11;12.73;;;8.10;;
34230;SDS011;21574;51.538;-0.084;2022-09-28T01:18:26;10.70;;;7.70;;
34230;SDS011;21574;51.538;-0.084;2022-09-28T01:21:07;13.05;;;7.80;;
34230;SDS011;21574;51.538;-0.084;2022-09-28T01:23:42;10.38;;;6.97;;
34230;SDS011;21574;51.538;-0.084;2022-09-28T01:29:04;12.35;;;7.60;;
34230;SDS011;21574;51.538;-0.084;2022-09-28T01:31:40;12.43;;;7.82;;
34230;SDS011;21574;51.538;-0.084;2022-09-28T01:34:13;11.57;;;6.90;;
34230;SDS011;21574;51.538;-0.084;2022-09-28T01:36:44;10.82;;;7.07;;
34230;SDS011;21574;51.538;-0.084;2022-09-28T01:39:15;10.93;;;7.40;;
34230;SDS011;21574;51.538;-0.084;2022-09-28T01:41:46;11.25;;;6.70;;
34230;SDS011;21574;51.538;-0.084;2022-09-28T01:44:15;10.57;;;6.90;;
34230;SDS011;21574;51.538;-0.084;2022-09-28T01:46:47;12.90;;;7.57;;
34230;SDS011;21574;51.538;-0.084;2022-09-28T01:49:22;10.20;;;7.05;;
34230;SDS011;21574;51.538;-0.084;2022-09-28T01:52:05;9.98;;;6.60;;
34230;SDS011;21574;51.538;-0.084;2022-09-28T01:54:37;8.82;;;6.30;;
34230;SDS011;21574;51.538;-0.084;2022-09-28T01:57:13;9.98;;;6.45;;
34230;SDS011;21574;51.538;-0.084;2022-09-28T01:59:44;9.70;;;6.32;;
34230;SDS011;21574;51.538;-0.084;2022-09-28T02:02:18;10.90;;;6.70;;
34230;SDS011;21574;51.538;-0.084;2022-09-28T02:04:50;8.15;;;5.63;;
34230;SDS011;21574;51.538;-0.084;2022-09-28T02:07:25;10.35;;;6.10;;
34230;SDS011;21574;51.538;-0.084;2022-09-28T02:10:18;9.77;;;5.90;;
34230;SDS011;21574;51.538;-0.084;2022-09-28T02:12:51;8.13;;;5.30;;
34230;SDS011;21574;51.538;-0.084;2022-09-28T02:15:19;8.85;;;5.20;;
34230;SDS011;21574;51.538;-0.084;2022-09-28T02:17:48;9.38;;;5.82;;
34230;SDS011;21574;51.538;-0.084;2022-09-28T02:20:15;7.35;;;5.05;;
34230;SDS011;21574;51.538;-0.084;2022-09-28T02:25:18;7.50;;;4.82;;
34230;SDS011;21574;51.538;-0.084;2022-09-28T02:28:09;6.90;;;4.47;;
34230;SDS011;21574;51.538;-0.084;2022-09-28T02:30:36;8.80;;;4.88;;
34230;SDS011;21574;51.538;-0.084;2022-09-28T02:33:06;8.68;;;4.90;;
34230;SDS011;21574;51.538;-0.084;2022-09-28T02:35:45;5.85;;;4.13;;
34230;SDS011;21574;51.538;-0.084;2022-09-28T02:38:12;6.43;;;4.30;;
34230;SDS011;21574;51.538;-0.084;2022-09-28T02:40:39;6.88;;;4.78;;
34230;SDS011;21574;51.538;-0.084;2022-09-28T02:51:44;7.18;;;3.85;;
34230;SDS011;21574;51.538;-0.084;2022-09-28T03:02:12;6.70;;;3.80;;
34230;SDS011;21574;51.538;-0.084;2022-09-28T03:10:15;5.93;;;3.50;;
34230;SDS011;21574;51.538;-0.084;2022-09-28T03:13:00;5.72;;;3.50;;
34230;SDS011;21574;51.538;-0.084;2022-09-28T03:15:28;5.70;;;3.38;;
34230;SDS011;21574;51.538;-0.084;2022-09-28T03:17:56;5.43;;;3.42;;
34230;SDS011;21574;51.538;-0.084;2022-09-28T03:20:22;5.88;;;3.40;;
34230;SDS011;21574;51.538;-0.084;2022-09-28T03:22:48;7.55;;;3.45;;
34230;SDS011;21574;51.538;-0.084;2022-09-28T03:25:14;4.40;;;3.10;;
34230;SDS011;21574;51.538;-0.084;2022-09-28T03:27:40;4.65;;;3.08;;
34230;SDS011;21574;51.538;-0.084;2022-09-28T03:30:06;4.90;;;2.93;;
34230;SDS011;21574;51.538;-0.084;2022-09-28T03:32:33;4.13;;;2.67;;
34230;SDS011;21574;51.538;-0.084;2022-09-28T03:34:58;6.57;;;3.00;;
34230;SDS011;21574;51.538;-0.084;2022-09-28T03:37:25;5.90;;;3.20;;
34230;SDS011;21574;51.538;-0.084;2022-09-28T03:39:51;5.80;;;3.13;;
34230;SDS011;21574;51.538;-0.084;2022-09-28T03:42:17;4.10;;;2.70;;
34230;SDS011;21574;51.538;-0.084;2022-09-28T03:44:42;4.72;;;2.65;;
34230;SDS011;21574;51.538;-0.084;2022-09-28T03:47:08;5.03;;;2.95;;
34230;SDS011;21574;51.538;-0.084;2022-09-28T03:49:34;4.93;;;2.73;;
34230;SDS011;21574;51.538;-0.084;2022-09-28T03:52:00;5.43;;;2.90;;
34230;SDS011;21574;51.538;-0.084;2022-09-28T03:54:26;3.95;;;2.53;;
34230;SDS011;21574;51.538;-0.084;2022-09-28T03:56:51;4.85;;;2.92;;
34230;SDS011;21574;51.538;-0.084;2022-09-28T03:59:17;4.45;;;2.53;;
34230;SDS011;21574;51.538;-0.084;2022-09-28T04:01:43;4.60;;;2.95;;
34230;SDS011;21574;51.538;-0.084;2022-09-28T04:04:10;3.20;;;2.17;;
34230;SDS011;21574;51.538;-0.084;2022-09-28T04:06:36;4.28;;;1.98;;
34230;SDS011;21574;51.538;-0.084;2022-09-28T04:09:02;3.67;;;2.40;;
34230;SDS011;21574;51.538;-0.084;2022-09-28T04:11:28;3.55;;;2.50;;
34230;SDS011;21574;51.538;-0.084;2022-09-28T04:13:54;4.22;;;2.47;;
34230;SDS011;21574;51.538;-0.084;2022-09-28T04:16:19;4.47;;;2.47;;
34230;SDS011;21574;51.538;-0.084;2022-09-28T04:18:45;9.60;;;2.55;;
34230;SDS011;21574;51.538;-0.084;2022-09-28T04:21:12;9.45;;;2.40;;
34230;SDS011;21574;51.538;-0.084;2022-09-28T04:23:39;4.45;;;2.15;;
34230;SDS011;21574;51.538;-0.084;2022-09-28T04:26:07;5.22;;;2.47;;
34230;SDS011;21574;51.538;-0.084;2022-09-28T04:28:37;3.75;;;2.00;;
34230;SDS011;21574;51.538;-0.084;2022-09-28T04:31:21;4.35;;;2.08;;
34230;SDS011;21574;51.538;-0.084;2022-09-28T04:33:48;3.92;;;2.05;;
34230;SDS011;21574;51.538;-0.084;2022-09-28T04:36:14;6.57;;;2.50;;
34230;SDS011;21574;51.538;-0.084;2022-09-28T04:38:39;5.00;;;2.10;;
34230;SDS011;21574;51.538;-0.084;2022-09-28T04:41:05;3.33;;;1.70;;
34230;SDS011;21574;51.538;-0.084;2022-09-28T04:43:31;3.10;;;1.60;;
34230;SDS011;21574;51.538;-0.084;2022-09-28T04:46:00;7.28;;;2.10;;
34230;SDS011;21574;51.538;-0.084;2022-09-28T04:48:27;9.20;;;2.25;;
34230;SDS011;21574;51.538;-0.084;2022-09-28T04:50:53;7.33;;;1.60;;
34230;SDS011;21574;51.538;-0.084;2022-09-28T04:53:21;6.68;;;2.08;;
34230;SDS011;21574;51.538;-0.084;2022-09-28T04:56:00;7.13;;;1.77;;
34230;SDS011;21574;51.538;-0.084;2022-09-28T04:58:28;6.65;;;1.60;;
34230;SDS011;21574;51.538;-0.084;2022-09-28T05:00:59;6.10;;;2.00;;
34230;SDS011;21574;51.538;-0.084;2022-09-28T05:03:26;5.18;;;2.13;;
34230;SDS011;21574;51.538;-0.084;2022-09-28T05:05:52;3.40;;;1.65;;
34230;SDS011;21574;51.538;-0.084;2022-09-28T05:08:18;4.95;;;1.75;;
34230;SDS011;21574;51.538;-0.084;2022-09-28T05:10:44;5.18;;;1.73;;
34230;SDS011;21574;51.538;-0.084;2022-09-28T05:13:10;4.32;;;1.90;;
34230;SDS011;21574;51.538;-0.084;2022-09-28T05:15:38;5.35;;;1.80;;
34230;SDS011;21574;51.538;-0.084;2022-09-28T05:18:05;3.50;;;1.27;;
34230;SDS011;21574;51.538;-0.084;2022-09-28T05:20:31;6.13;;;1.73;;
34230;SDS011;21574;51.538;-0.084;2022-09-28T05:22:57;5.13;;;1.75;;
34230;SDS011;21574;51.538;-0.084;2022-09-28T05:25:23;5.63;;;1.60;;
34230;SDS011;21574;51.538;-0.084;2022-09-28T05:27:54;3.95;;;1.42;;
34230;SDS011;21574;51.538;-0.084;2022-09-28T05:30:21;3.55;;;1.70;;
34230;SDS011;21574;51.538;-0.084;2022-09-28T05:32:47;4.15;;;1.52;;
34230;SDS011;21574;51.538;-0.084;2022-09-28T05:35:15;9.52;;;2.40;;
34230;SDS011;21574;51.538;-0.084;2022-09-28T05:37:40;14.23;;;2.78;;
34230;SDS011;21574;51.538;-0.084;2022-09-28T05:40:06;17.00;;;3.40;;
34230;SDS011;21574;51.538;-0.084;2022-09-28T05:42:32;16.67;;;2.58;;
34230;SDS011;21574;51.538;-0.084;2022-09-28T05:44:58;7.32;;;2.67;;
34230;SDS011;21574;51.538;-0.084;2022-09-28T05:47:24;13.15;;;2.67;;
34230;SDS011;21574;51.538;-0.084;2022-09-28T05:49:50;16.10;;;2.78;;
34230;SDS011;21574;51.538;-0.084;2022-09-28T05:52:16;21.27;;;3.72;;
34230;SDS011;21574;51.538;-0.084;2022-09-28T05:54:42;21.40;;;3.00;;
34230;SDS011;21574;51.538;-0.084;2022-09-28T05:57:08;19.30;;;4.05;;
34230;SDS011;21574;51.538;-0.084;2022-09-28T05:59:34;24.23;;;5.45;;
34230;SDS011;21574;51.538;-0.084;2022-09-28T06:02:00;20.30;;;4.85;;
34230;SDS011;21574;51.538;-0.084;2022-09-28T06:04:26;11.17;;;4.07;;
34230;SDS011;21574;51.538;-0.084;2022-09-28T06:06:52;12.63;;;3.33;;
34230;SDS011;21574;51.538;-0.084;2022-09-28T06:09:18;14.55;;;4.05;;
34230;SDS011;21574;51.538;-0.084;2022-09-28T06:11:44;13.88;;;3.20;;
34230;SDS011;21574;51.538;-0.084;2022-09-28T06:14:09;12.70;;;3.85;;
34230;SDS011;21574;51.538;-0.084;2022-09-28T06:16:37;11.55;;;3.63;;
34230;SDS011;21574;51.538;-0.084;2022-09-28T06:19:03;14.02;;;3.60;;
34230;SDS011;21574;51.538;-0.084;2022-09-28T06:21:29;12.63;;;3.78;;
34230;SDS011;21574;51.538;-0.084;2022-09-28T06:23:54;16.13;;;3.05;;
34230;SDS011;21574;51.538;-0.084;2022-09-28T06:26:20;9.18;;;2.90;;
34230;SDS011;21574;51.538;-0.084;2022-09-28T06:28:45;7.50;;;2.70;;
34230;SDS011;21574;51.538;-0.084;2022-09-28T06:31:11;13.52;;;3.50;;
34230;SDS011;21574;51.538;-0.084;2022-09-28T06:33:37;10.35;;;3.00;;
34230;SDS011;21574;51.538;-0.084;2022-09-28T06:36:02;9.88;;;2.55;;
34230;SDS011;21574;51.538;-0.084;2022-09-28T06:38:28;8.32;;;2.53;;
34230;SDS011;21574;51.538;-0.084;2022-09-28T06:40:55;8.75;;;2.67;;
34230;SDS011;21574;51.538;-0.084;2022-09-28T06:45:53;14.55;;;2.38;;
34230;SDS011;21574;51.538;-0.084;2022-09-28T06:48:19;6.70;;;2.28;;
34230;SDS011;21574;51.538;-0.084;2022-09-28T06:50:44;7.07;;;2.75;;
34230;SDS011;21574;51.538;-0.084;2022-09-28T06:53:11;8.60;;;2.45;;
34230;SDS011;21574;51.538;-0.084;2022-09-28T06:55:42;8.10;;;2.25;;
34230;SDS011;21574;51.538;-0.084;2022-09-28T06:58:10;6.88;;;2.25;;
34230;SDS011;21574;51.538;-0.084;2022-09-28T07:00:38;11.27;;;2.40;;
34230;SDS011;21574;51.538;-0.084;2022-09-28T07:05:33;7.60;;;2.08;;
34230;SDS011;21574;51.538;-0.084;2022-09-28T07:08:00;7.82;;;2.03;;
34230;SDS011;21574;51.538;-0.084;2022-09-28T07:10:28;8.30;;;2.85;;
34230;SDS011;21574;51.538;-0.084;2022-09-28T07:12:54;8.43;;;2.53;;
34230;SDS011;21574;51.538;-0.084;2022-09-28T07:15:21;12.02;;;2.42;;
34230;SDS011;21574;51.538;-0.084;2022-09-28T07:17:48;7.45;;;2.42;;
34230;SDS011;21574;51.538;-0.084;2022-09-28T07:20:14;11.45;;;2.88;;
34230;SDS011;21574;51.538;-0.084;2022-09-28T07:22:39;6.35;;;2.25;;
34230;SDS011;21574;51.538;-0.084;2022-09-28T07:25:06;9.03;;;2.40;;
34230;SDS011;21574;51.538;-0.084;2022-09-28T07:27:33;10.90;;;2.45;;
34230;SDS011;21574;51.538;-0.084;2022-09-28T07:30:01;8.30;;;2.53;;
34230;SDS011;21574;51.538;-0.084;2022-09-28T07:32:28;5.70;;;2.42;;
34230;SDS011;21574;51.538;-0.084;2022-09-28T07:34:55;6.80;;;2.53;;
34230;SDS011;21574;51.538;-0.084;2022-09-28T07:37:21;9.88;;;2.60;;
34230;SDS011;21574;51.538;-0.084;2022-09-28T07:39:48;8.77;;;2.45;;
34230;SDS011;21574;51.538;-0.084;2022-09-28T07:42:32;10.57;;;1.95;;
34230;SDS011;21574;51.538;-0.084;2022-09-28T07:44:57;9.95;;;2.25;;
34230;SDS011;21574;51.538;-0.084;2022-09-28T07:47:23;7.35;;;2.33;;
34230;SDS011;21574;51.538;-0.084;2022-09-28T07:49:56;9.30;;;2.33;;
34230;SDS011;21574;51.538;-0.084;2022-09-28T07:52:22;8.05;;;2.33;;
34230;SDS011;21574;51.538;-0.084;2022-09-28T07:54:50;7.32;;;2.20;;
34230;SDS011;21574;51.538;-0.084;2022-09-28T07:57:17;7.97;;;2.42;;
34230;SDS011;21574;51.538;-0.084;2022-09-28T07:59:44;10.65;;;2.45;;
34230;SDS011;21574;51.538;-0.084;2022-09-28T08:02:10;8.98;;;2.30;;
34230;SDS011;21574;51.538;-0.084;2022-09-28T08:04:36;6.10;;;2.40;;
34230;SDS011;21574;51.538;-0.084;2022-09-28T08:07:02;7.03;;;2.67;;
34230;SDS011;21574;51.538;-0.084;2022-09-28T08:09:28;6.65;;;2.17;;
34230;SDS011;21574;51.538;-0.084;2022-09-28T08:11:54;7.17;;;2.50;;
34230;SDS011;21574;51.538;-0.084;2022-09-28T08:14:19;6.55;;;2.25;;
34230;SDS011;21574;51.538;-0.084;2022-09-28T08:16:45;6.93;;;2.13;;
34230;SDS011;21574;51.538;-0.084;2022-09-28T08:19:11;7.75;;;2.53;;
34230;SDS011;21574;51.538;-0.084;2022-09-28T08:21:36;7.68;;;2.08;;
34230;SDS011;21574;51.538;-0.084;2022-09-28T08:24:12;5.85;;;2.03;;
34230;SDS011;21574;51.538;-0.084;2022-09-28T08:26:39;6.80;;;2.20;;
34230;SDS011;21574;51.538;-0.084;2022-09-28T08:29:05;5.28;;;2.30;;
34230;SDS011;21574;51.538;-0.084;2022-09-28T08:31:30;7.05;;;2.47;;
34230;SDS011;21574;51.538;-0.084;2022-09-28T08:33:56;4.72;;;2.13;;
34230;SDS011;21574;51.538;-0.084;2022-09-28T08:36:22;5.60;;;1.98;;
34230;SDS011;21574;51.538;-0.084;2022-09-28T08:38:48;3.78;;;1.73;;
34230;SDS011;21574;51.538;-0.084;2022-09-28T08:46:46;6.65;;;2.20;;
34230;SDS011;21574;51.538;-0.084;2022-09-28T08:49:18;7.40;;;2.30;;
34230;SDS011;21574;51.538;-0.084;2022-09-28T08:51:50;5.07;;;1.77;;
34230;SDS011;21574;51.538;-0.084;2022-09-28T08:57:25;6.50;;;2.10;;
34230;SDS011;21574;51.538;-0.084;2022-09-28T08:59:56;7.35;;;1.95;;
34230;SDS011;21574;51.538;-0.084;2022-09-28T09:02:33;6.38;;;2.42;;
34230;SDS011;21574;51.538;-0.084;2022-09-28T09:05:04;5.32;;;2.00;;
34230;SDS011;21574;51.538;-0.084;2022-09-28T09:19:09;7.03;;;1.90;;
34230;SDS011;21574;51.538;-0.084;2022-09-28T09:21:58;5.57;;;2.42;;
34230;SDS011;21574;51.538;-0.084;2022-09-28T09:24:57;6.32;;;1.92;;
34230;SDS011;21574;51.538;-0.084;2022-09-28T09:30:06;5.63;;;2.00;;
34230;SDS011;21574;51.538;-0.084;2022-09-28T09:41:22;4.53;;;2.03;;
34230;SDS011;21574;51.538;-0.084;2022-09-28T09:46:54;6.55;;;2.00;;
34230;SDS011;21574;51.538;-0.084;2022-09-28T09:49:35;3.67;;;1.70;;
34230;SDS011;21574;51.538;-0.084;2022-09-28T09:57:13;3.47;;;1.60;;
34230;SDS011;21574;51.538;-0.084;2022-09-28T09:59:43;3.97;;;1.70;;
34230;SDS011;21574;51.538;-0.084;2022-09-28T10:02:14;5.75;;;1.70;;
34230;SDS011;21574;51.538;-0.084;2022-09-28T10:04:46;5.80;;;2.10;;
34230;SDS011;21574;51.538;-0.084;2022-09-28T10:07:17;3.30;;;1.65;;
34230;SDS011;21574;51.538;-0.084;2022-09-28T10:10:00;3.33;;;1.70;;
34230;SDS011;21574;51.538;-0.084;2022-09-28T10:12:26;3.97;;;1.67;;
34230;SDS011;21574;51.538;-0.084;2022-09-28T10:14:53;6.47;;;1.92;;
34230;SDS011;21574;51.538;-0.084;2022-09-28T10:17:20;3.80;;;1.80;;
34230;SDS011;21574;51.538;-0.084;2022-09-28T10:19:50;4.03;;;1.60;;
34230;SDS011;21574;51.538;-0.084;2022-09-28T10:22:19;3.83;;;1.70;;
34230;SDS011;21574;51.538;-0.084;2022-09-28T10:24:48;4.18;;;1.60;;
34230;SDS011;21574;51.538;-0.084;2022-09-28T10:27:27;3.78;;;1.98;;
34230;SDS011;21574;51.538;-0.084;2022-09-28T10:29:56;2.00;;;1.30;;
34230;SDS011;21574;51.538;-0.084;2022-09-28T10:32:43;3.22;;;1.42;;
34230;SDS011;21574;51.538;-0.084;2022-09-28T10:37:46;2.90;;;1.55;;
34230;SDS011;21574;51.538;-0.084;2022-09-28T10:43:28;4.85;;;1.70;;
34230;SDS011;21574;51.538;-0.084;2022-09-28T10:46:02;2.88;;;1.45;;
34230;SDS011;21574;51.538;-0.084;2022-09-28T10:51:13;3.92;;;1.25;;
34230;SDS011;21574;51.538;-0.084;2022-09-28T10:53:40;3.13;;;1.70;;
34230;SDS011;21574;51.538;-0.084;2022-09-28T10:56:17;3.92;;;1.42;;
34230;SDS011;21574;51.538;-0.084;2022-09-28T10:58:44;2.50;;;1.40;;
34230;SDS011;21574;51.538;-0.084;2022-09-28T11:01:11;2.97;;;1.33;;
34230;SDS011;21574;51.538;-0.084;2022-09-28T11:03:47;3.85;;;1.35;;
34230;SDS011;21574;51.538;-0.084;2022-09-28T11:06:22;3.03;;;1.50;;
34230;SDS011;21574;51.538;-0.084;2022-09-28T11:09:28;4.60;;;1.67;;
34230;SDS011;21574;51.538;-0.084;2022-09-28T11:11:59;2.00;;;1.40;;
34230;SDS011;21574;51.538;-0.084;2022-09-28T11:14:32;2.80;;;1.25;;
34230;SDS011;21574;51.538;-0.084;2022-09-28T11:19:53;3.63;;;1.25;;
34230;SDS011;21574;51.538;-0.084;2022-09-28T11:22:21;2.38;;;1.20;;
34230;SDS011;21574;51.538;-0.084;2022-09-28T11:24:50;2.28;;;1.13;;
34230;SDS011;21574;51.538;-0.084;2022-09-28T11:27:23;1.83;;;1.20;;
34230;SDS011;21574;51.538;-0.084;2022-09-28T11:29:54;3.47;;;1.20;;
34230;SDS011;21574;51.538;-0.084;2022-09-28T11:32:23;3.78;;;1.45;;
34230;SDS011;21574;51.538;-0.084;2022-09-28T11:34:52;2.97;;;1.33;;
34230;SDS011;21574;51.538;-0.084;2022-09-28T11:37:34;3.42;;;1.52;;
34230;SDS011;21574;51.538;-0.084;2022-09-28T11:40:14;2.60;;;1.15;;
34230;SDS011;21574;51.538;-0.084;2022-09-28T11:48:41;2.25;;;1.20;;
34230;SDS011;21574;51.538;-0.084;2022-09-28T11:51:16;3.60;;;1.13;;
34230;SDS011;21574;51.538;-0.084;2022-09-28T11:54:49;2.13;;;1.15;;
34230;SDS011;21574;51.538;-0.084;2022-09-28T11:56:42;2.85;;;1.10;;
34230;SDS011;21574;51.538;-0.084;2022-09-28T11:59:13;2.80;;;1.45;;
34230;SDS011;21574;51.538;-0.084;2022-09-28T12:01:46;3.63;;;1.30;;
34230;SDS011;21574;51.538;-0.084;2022-09-28T12:04:20;2.78;;;1.20;;
34230;SDS011;21574;51.538;-0.084;2022-09-28T12:06:54;3.00;;;1.20;;
34230;SDS011;21574;51.538;-0.084;2022-09-28T12:09:29;3.33;;;1.20;;
34230;SDS011;21574;51.538;-0.084;2022-09-28T12:12:01;1.63;;;0.90;;
34230;SDS011;21574;51.538;-0.084;2022-09-28T12:14:32;1.98;;;1.00;;
34230;SDS011;21574;51.538;-0.084;2022-09-28T12:17:00;2.97;;;1.10;;
34230;SDS011;21574;51.538;-0.084;2022-09-28T12:19:32;2.67;;;1.23;;
34230;SDS011;21574;51.538;-0.084;2022-09-28T12:22:17;2.13;;;0.90;;
34230;SDS011;21574;51.538;-0.084;2022-09-28T12:24:56;1.50;;;1.13;;
34230;SDS011;21574;51.538;-0.084;2022-09-28T12:30:16;2.42;;;1.33;;
34230;SDS011;21574;51.538;-0.084;2022-09-28T12:52:24;1.50;;;1.00;;
34230;SDS011;21574;51.538;-0.084;2022-09-28T13:00:12;1.77;;;1.10;;
34230;SDS011;21574;51.538;-0.084;2022-09-28T13:02:53;1.92;;;1.10;;
34230;SDS011;21574;51.538;-0.084;2022-09-28T13:06:07;2.50;;;1.00;;
34230;SDS011;21574;51.538;-0.084;2022-09-28T13:08:52;1.38;;;0.80;;
34230;SDS011;21574;51.538;-0.084;2022-09-28T13:14:06;1.33;;;0.77;;
34230;SDS011;21574;51.538;-0.084;2022-09-28T13:16:42;2.05;;;1.05;;
34230;SDS011;21574;51.538;-0.084;2022-09-28T13:22:05;1.40;;;0.80;;
34230;SDS011;21574;51.538;-0.084;2022-09-28T13:24:52;2.40;;;1.13;;
34230;SDS011;21574;51.538;-0.084;2022-09-28T13:27:27;1.08;;;0.75;;
34230;SDS011;21574;51.538;-0.084;2022-09-28T13:30:02;1.38;;;0.77;;
34230;SDS011;21574;51.538;-0.084;2022-09-28T13:32:30;2.17;;;0.90;;
34230;SDS011;21574;51.538;-0.084;2022-09-28T13:34:57;2.60;;;0.93;;
34230;SDS011;21574;51.538;-0.084;2022-09-28T13:37:26;1.27;;;0.90;;
34230;SDS011;21574;51.538;-0.084;2022-09-28T13:48:22;2.33;;;1.02;;
34230;SDS011;21574;51.538;-0.084;2022-09-28T13:53:35;1.70;;;0.88;;
34230;SDS011;21574;51.538;-0.084;2022-09-28T13:56:29;0.52;;;0.50;;
34230;SDS011;21574;51.538;-0.084;2022-09-28T13:59:21;2.45;;;1.00;;
34230;SDS011;21574;51.538;-0.084;2022-09-28T14:01:55;2.70;;;0.90;;
34230;SDS011;21574;51.538;-0.084;2022-09-28T14:04:53;2.67;;;0.93;;
34230;SDS011;21574;51.538;-0.084;2022-09-28T14:12:43;1.00;;;0.75;;
34230;SDS011;21574;51.538;-0.084;2022-09-28T14:20:59;2.13;;;0.68;;
34230;SDS011;21574;51.538;-0.084;2022-09-28T14:43:34;0.93;;;0.70;;
34230;SDS011;21574;51.538;-0.084;2022-09-28T14:51:59;1.13;;;0.68;;
34230;SDS011;21574;51.538;-0.084;2022-09-28T14:59:12;1.65;;;0.73;;
34230;SDS011;21574;51.538;-0.084;2022-09-28T15:01:49;1.05;;;0.80;;
34230;SDS011;21574;51.538;-0.084;2022-09-28T15:04:15;1.00;;;0.50;;
34230;SDS011;21574;51.538;-0.084;2022-09-28T15:06:42;1.75;;;0.88;;
34230;SDS011;21574;51.538;-0.084;2022-09-28T15:09:31;1.08;;;0.68;;
34230;SDS011;21574;51.538;-0.084;2022-09-28T15:14:28;1.17;;;0.77;;
34230;SDS011;21574;51.538;-0.084;2022-09-28T15:16:59;1.58;;;0.80;;
34230;SDS011;21574;51.538;-0.084;2022-09-28T15:19:36;1.67;;;0.73;;
34230;SDS011;21574;51.538;-0.084;2022-09-28T15:22:17;1.02;;;0.70;;
34230;SDS011;21574;51.538;-0.084;2022-09-28T15:24:45;1.27;;;0.70;;
34230;SDS011;21574;51.538;-0.084;2022-09-28T15:27:21;0.97;;;0.60;;
34230;SDS011;21574;51.538;-0.084;2022-09-28T15:30:00;1.38;;;0.75;;
34230;SDS011;21574;51.538;-0.084;2022-09-28T15:32:39;1.10;;;0.80;;
34230;SDS011;21574;51.538;-0.084;2022-09-28T15:35:11;1.15;;;0.70;;
34230;SDS011;21574;51.538;-0.084;2022-09-28T15:37:44;1.77;;;0.85;;
34230;SDS011;21574;51.538;-0.084;2022-09-28T15:42:51;1.23;;;0.57;;
34230;SDS011;21574;51.538;-0.084;2022-09-28T15:45:35;1.63;;;0.80;;
34230;SDS011;21574;51.538;-0.084;2022-09-28T15:48:47;0.85;;;0.80;;
34230;SDS011;21574;51.538;-0.084;2022-09-28T15:51:05;1.35;;;0.80;;
34230;SDS011;21574;51.538;-0.084;2022-09-28T15:53:46;1.08;;;0.73;;
34230;SDS011;21574;51.538;-0.084;2022-09-28T15:56:25;1.35;;;0.70;;
34230;SDS011;21574;51.538;-0.084;2022-09-28T16:01:39;1.20;;;0.73;;
34230;SDS011;21574;51.538;-0.084;2022-09-28T16:17:42;1.63;;;0.70;;
34230;SDS011;21574;51.538;-0.084;2022-09-28T16:20:20;1.33;;;0.80;;
34230;SDS011;21574;51.538;-0.084;2022-09-28T16:22:51;1.60;;;0.75;;
34230;SDS011;21574;51.538;-0.084;2022-09-28T16:25:18;1.73;;;0.90;;
34230;SDS011;21574;51.538;-0.084;2022-09-28T16:27:48;2.80;;;0.90;;
34230;SDS011;21574;51.538;-0.084;2022-09-28T16:33:03;1.67;;;0.77;;
34230;SDS011;21574;51.538;-0.084;2022-09-28T16:35:31;1.17;;;0.93;;
34230;SDS011;21574;51.538;-0.084;2022-09-28T16:38:15;2.13;;;0.77;;
34230;SDS011;21574;51.538;-0.084;2022-09-28T16:40:42;1.92;;;0.93;;
34230;SDS011;21574;51.538;-0.084;2022-09-28T16:43:16;1.17;;;0.85;;
34230;SDS011;21574;51.538;-0.084;2022-09-28T16:45:52;2.45;;;0.90;;
34230;SDS011;21574;51.538;-0.084;2022-09-28T16:48:26;1.65;;;0.90;;
34230;SDS011;21574;51.538;-0.084;2022-09-28T16:50:54;0.98;;;0.82;;
34230;SDS011;21574;51.538;-0.084;2022-09-28T16:53:20;1.75;;;0.98;;
34230;SDS011;21574;51.538;-0.084;2022-09-28T16:56:05;2.25;;;0.82;;
34230;SDS011;21574;51.538;-0.084;2022-09-28T16:58:31;1.37;;;1.03;;
34230;SDS011;21574;51.538;-0.084;2022-09-28T17:00:57;1.65;;;0.77;;
34230;SDS011;21574;51.538;-0.084;2022-09-28T17:03:23;2.40;;;1.00;;
34230;SDS011;21574;51.538;-0.084;2022-09-28T17:05:50;3.10;;;1.00;;
34230;SDS011;21574;51.538;-0.084;2022-09-28T17:08:17;1.88;;;0.82;;
34230;SDS011;21574;51.538;-0.084;2022-09-28T17:13:22;1.70;;;0.80;;
34230;SDS011;21574;51.538;-0.084;2022-09-28T17:15:57;1.60;;;0.82;;
34230;SDS011;21574;51.538;-0.084;2022-09-28T17:18:23;0.98;;;0.80;;
34230;SDS011;21574;51.538;-0.084;2022-09-28T17:20:50;2.90;;;0.70;;
34230;SDS011;21574;51.538;-0.084;2022-09-28T17:23:18;1.88;;;0.95;;
34230;SDS011;21574;51.538;-0.084;2022-09-28T17:25:45;0.63;;;0.60;;
34230;SDS011;21574;51.538;-0.084;2022-09-28T17:28:21;1.38;;;0.77;;
34230;SDS011;21574;51.538;-0.084;2022-09-28T17:30:50;1.27;;;0.70;;
34230;SDS011;21574;51.538;-0.084;2022-09-28T17:33:16;1.42;;;0.70;;
34230;SDS011;21574;51.538;-0.084;2022-09-28T17:35:41;4.72;;;0.77;;
34230;SDS011;21574;51.538;-0.084;2022-09-28T17:38:11;3.03;;;0.80;;
34230;SDS011;21574;51.538;-0.084;2022-09-28T17:40:39;3.22;;;0.93;;
34230;SDS011;21574;51.538;-0.084;2022-09-28T17:45:32;4.13;;;0.90;;
34230;SDS011;21574;51.538;-0.084;2022-09-28T17:48:02;2.20;;;1.08;;
34230;SDS011;21574;51.538;-0.084;2022-09-28T17:50:30;6.60;;;0.95;;
34230;SDS011;21574;51.538;-0.084;2022-09-28T17:52:58;3.40;;;1.27;;
34230;SDS011;21574;51.538;-0.084;2022-09-28T17:55:28;2.88;;;0.90;;
34230;SDS011;21574;51.538;-0.084;2022-09-28T17:57:58;3.53;;;1.00;;
34230;SDS011;21574;51.538;-0.084;2022-09-28T18:00:25;2.20;;;0.98;;
34230;SDS011;21574;51.538;-0.084;2022-09-28T18:02:55;5.93;;;0.80;;
34230;SDS011;21574;51.538;-0.084;2022-09-28T18:05:22;5.28;;;1.00;;
34230;SDS011;21574;51.538;-0.084;2022-09-28T18:07:50;3.00;;;0.93;;
34230;SDS011;21574;51.538;-0.084;2022-09-28T18:10:19;1.57;;;0.70;;
34230;SDS011;21574;51.538;-0.084;2022-09-28T18:12:47;1.77;;;0.70;;
34230;SDS011;21574;51.538;-0.084;2022-09-28T18:15:13;4.03;;;0.90;;
34230;SDS011;21574;51.538;-0.084;2022-09-28T18:17:39;4.00;;;1.10;;
34230;SDS011;21574;51.538;-0.084;2022-09-28T18:20:06;3.08;;;1.27;;
34230;SDS011;21574;51.538;-0.084;2022-09-28T18:22:33;2.78;;;0.90;;